Logo AVAMET
Benvolgut visitant, si us plau, ingressa Recuperar contrasenya

Redovà

Dades diàries. Acumulats / Últims 30 dies disponibles

Data Temperatura (°C) Humitat rel. (%) Pressió rel. (hPa) Vent (km/h) Precipitació
Mínima Mitjana Màxima Amplitud
tèrmica
Mínima Mitjana Màxima Mínima Mitjana Màxima Predom. Mitjana Ràfega
màxima
Total
(mm)
Índex-n
Mínima Mitjana Màxima Mínima Mitjana Màxima n
0 a 1
P0 max
mm 5'
Dades mensuals acumulades fins l'últim dia disponible
12/2019 8,9 12,0 14,8 14,7 14,5 17,9 21,6 12,7 34 72 90 1.005 1.018 1.029   3,5 53,1 42,0
Dades anuals acumulades fins l'últim dia disponible
2019 1,3 14,7 26,5 19,6 13,1 25,1 42,7 41,4 0 64 96 996 1.018 1.036   2,9 57,9 518,4
Últims 30 dies disponibles
10-12-2019 12,1     15,5     21,6 9,5 34 51 76 1.025 1.026 1.028 SSO 3,1 22,5 0,0
09-12-2019 14,8     18,0     20,9 6,1 36 48 67 1.025 1.027 1.029 SSO 4,5 30,6 0,0
06-12-2019 13,3     15,0     16,3 3,0 75 79 83 1.024 1.025 1.025 SSO 0,0 0,0 0,0
05-12-2019 10,0     13,8     17,3 7,3 69 80 89 1.012 1.016 1.021 SSE 2,3 20,9 0,0
04-12-2019 12,1     12,9     15,0 2,9 73 80 86 1.005 1.008 1.011 SO 3,4 38,6 1,8 0,20
03-12-2019 11,1     12,8     14,5 3,4 69 79 88 1.010 1.013 1.016 SE 6,5 53,1 20,4 0,66 3,90
02-12-2019 13,5     14,8     16,3 2,8 73 81 89 1.011 1.014 1.017 SE 5,9 49,9 19,8 0,30 2,60
01-12-2019 8,9     14,8     21,1 12,2 51 76 90 1.011 1.013 1.015 SE 2,4 33,8 0,0
30-11-2019 11,8     16,2     22,5 10,7 55 74 88 1.016 1.020 1.023 SSE 0,3 9,7 0,0
29-11-2019 12,3     17,3     22,9 10,6 53 64 78 1.019 1.021 1.023 SSO 2,1 19,3 0,0
28-11-2019 11,1     16,5     21,8 10,7 47 61 82 1.016 1.018 1.020 SSE 2,1 19,3 0,0
27-11-2019 12,1     16,7     23,3 11,2 41 67 87 1.011 1.013 1.017 S 2,4 24,1 0,0
26-11-2019 10,8     15,8     22,7 11,9 51 74 86 1.012 1.015 1.017 O 0,7 22,5 0,0
25-11-2019 11,9     16,8     22,3 10,4 52 63 75 1.014 1.016 1.018 SO 2,5 25,7 0,0
24-11-2019 11,1     14,2     17,4 6,3 44 54 65 1.012 1.015 1.017 SSO 5,9 29,0 0,0
23-11-2019 11,1     15,0     18,3 7,2 38 57 95 996 1.002 1.011 SSO 7,0 51,5 0,2
22-11-2019 8,8     12,2     15,2 6,4 86 91 94 998 1.005 1.010 S 0,6 19,3 8,2 0,33 1,10
21-11-2019 8,1     12,2     17,3 9,2 62 80 89 1.010 1.011 1.013 SE 0,1 9,7 0,4
20-11-2019 6,8     12,1     17,4 10,6 56 73 89 1.011 1.013 1.017 SE 0,7 8,0 0,2
19-11-2019 9,3     14,1     16,7 7,4 42 50 72 1.017 1.018 1.020 SSO 4,0 25,7 0,0
18-11-2019 10,6     13,8     17,2 6,6 46 64 92 1.009 1.012 1.016 SSO 4,2 25,7 1,8 0,68 0,80
17-11-2019 7,5     13,0     17,9 10,4 39 51 64 1.012 1.016 1.018 SSO 2,7 25,7 0,0
16-11-2019 8,9     12,3     16,1 7,2 0 49 63 1.009 1.014 1.018 SSO 3,9 27,4 0,0
15-11-2019 9,2     12,3     15,4 6,2 40 53 62 1.004 1.007 1.009 SSO 4,5 33,8 0,0
14-11-2019 11,5     13,9     17,8 6,3 47 57 86 1.003 1.004 1.006 SSO 4,6 35,4 0,0
13-11-2019 12,7     17,8     23,3 10,6 43 53 63 1.008 1.010 1.013 SSO 3,4 35,4 0,0
12-11-2019 12,2     16,9     19,3 7,1 33 40 47 1.012 1.013 1.015 SSO 5,6 29,0 0,0
11-11-2019 10,7     15,3     18,2 7,5 42 49 55 1.013 1.015 1.017 SSO 7,0 37,0 0,0
10-11-2019 12,8     15,2     17,3 4,5 35 48 71 1.013 1.015 1.016 SSO 7,6 49,9 0,0
09-11-2019 12,6     15,3     19,0 6,4 37 48 65 1.016 1.020 1.023 S 3,8 30,6 0,0
Últims 13 mesos disponibles
11/2019 6,8 12,1 20,0 16,1 15,2 20,4 28,4 21,6 40 58 91 1.002 1.013 1.021 SSO 3,7 51,5 10,8
10/2019 11,2 16,2 22,1 21,3 17,4 26,6 34,9 23,7 45 68 90 1.010 1.018 1.024 SSO 2,0 33,8 19,2
09/2019 16,3 20,7 24,2 24,5 22,9 29,4 35,4 19,1 48 74 88 1.012 1.019 1.024 SSE 2,9 51,5 307,6
08/2019 19,8 22,7 25,8 27,3 29,5 33,0 42,7 22,9 36 67 80 1.012 1.017 1.021 ESE 2,4 45,1 32,8
07/2019 21,0 23,1 26,5 28,3 29,6 33,7 38,9 17,9 36 60 73 1.008 1.015 1.021 ESE 4,1 41,8 0,2
06/2019 13,9 18,6 23,2 24,4 24,7 30,2 36,3 22,4 37 59 73 1.010 1.016 1.024 SSE 3,8 49,9 0,8
05/2019 11,6 15,4 21,2 20,6 21,6 26,3 32,7 21,1 46 64 75 1.008 1.017 1.026 SE 3,6 48,3 3,4
04/2019 8,3 12,1 15,8 16,3 14,6 21,7 29,9 21,6 46 67 90 1.002 1.015 1.027 S 2,7 57,9 80,4
03/2019 5,4 9,2 13,2 14,9 13,1 21,4 28,7 23,3 40 62 90 1.013 1.024 1.032 SSE 2,2 46,7 18,6
02/2019 4,9 7,8 11,9 13,1 14,2 19,9 28,3 23,4 37 63 78 999 1.027 1.034 SSE 2,3 51,5 0,0
01/2019 1,3 6,7 13,0 11,7 13,4 17,9 23,2 21,9 40 60 81 1.007 1.021 1.033 SSO 1,8 40,2 2,6
12/2018 5,1 7,8 11,8 12,3 15,3 18,3 21,0 15,9 59 73 83 1.024 1.030 1.033 E 0,8 29,0 0,2
10/2018 9,3 15,0 18,7 19,6 17,5 26,4 30,5 21,2 43 72 83 1.002 1.016 1.026 SSE 2,0 49,9 55,6
Tots els anys disponibles
Temperatura (°C)
Humitat relativa (%)
Velocitat del vent i ràfega màxima (km/h)
Direcció del vent (°)
Pressió (hPa)
Precipitació (mm)
Nota sobre les dades: s'avisa a l'usuari de la provisionalitat i no oficialitat d'aquestes dades
Logo AVAMET blanc
Web allotjada a Sollutia
Llicència de Creative CommonsLa web d'AVAMET i els seus continguts estan subjectes a una llicència de
Reconeixement - No Comercial - Compartir igual
Últimes estacions: Aielo de Malferit - Centre (Soci), Faura (Inforatge), Benifairó de les Valls (Inforatge), Xàbia - Les Valls (Soci), Xàbia - Alt de la Granadella (Soci), Villena - Sierra de Salinas (Soci), Sueca - Centre (Inforatge) - - -